createdAt,value
2023-05-08T00:01:17.595Z,101634.84
2023-05-08T00:03:44.257Z,101641.25
2023-05-08T00:06:10.919Z,101639.28
2023-05-08T00:08:37.441Z,101638.19
2023-05-08T00:11:03.944Z,101648.16
2023-05-08T00:13:30.592Z,101645.41
2023-05-08T00:15:57.160Z,101648.66
2023-05-08T00:18:23.840Z,101649.09
2023-05-08T00:20:50.369Z,101633.19
2023-05-08T00:23:16.800Z,101640.78
2023-05-08T00:25:43.668Z,101646.41
2023-05-08T00:28:10.175Z,101641.22
2023-05-08T00:30:36.837Z,101641.28
2023-05-08T00:33:03.442Z,101638.91
2023-05-08T00:35:29.955Z,101636.13
2023-05-08T00:37:56.467Z,101645.00
2023-05-08T00:40:23.012Z,101645.00
2023-05-08T00:42:49.481Z,101641.44
2023-05-08T00:45:15.942Z,101644.25
2023-05-08T00:47:42.783Z,101645.09
2023-05-08T00:50:10.697Z,101644.69
2023-05-08T00:52:37.846Z,101637.94
2023-05-08T00:55:05.651Z,101649.53
2023-05-08T00:57:35.714Z,101637.19
2023-05-08T01:00:04.326Z,101642.00
2023-05-08T01:02:32.047Z,101637.22
2023-05-08T01:04:58.997Z,101633.69
2023-05-08T01:07:26.083Z,101632.88
2023-05-08T01:09:53.382Z,101642.06
2023-05-08T01:12:25.872Z,101636.50
2023-05-08T01:15:10.747Z,101640.88
2023-05-08T01:17:41.194Z,101641.66
2023-05-08T01:20:48.879Z,101646.03
2023-05-08T01:23:52.719Z,101650.88
2023-05-08T01:26:55.970Z,101642.91
2023-05-08T01:29:51.604Z,101641.75
2023-05-08T01:32:52.283Z,101645.41
2023-05-08T01:35:29.903Z,101648.22
2023-05-08T01:38:12.652Z,101648.63
2023-05-08T01:41:07.030Z,101644.66
2023-05-08T01:43:37.124Z,101651.44
2023-05-08T01:46:10.021Z,101645.50
2023-05-08T01:48:44.489Z,101635.13
2023-05-08T01:51:20.786Z,101641.19
2023-05-08T01:54:00.832Z,101643.19
2023-05-08T01:56:29.722Z,101651.97
2023-05-08T01:58:59.026Z,101652.81
2023-05-08T02:01:29.367Z,101651.63
2023-05-08T02:03:56.585Z,101652.06
2023-05-08T02:06:25.098Z,101656.06
2023-05-08T02:08:53.581Z,101654.88
2023-05-08T02:11:21.627Z,101656.09
2023-05-08T02:13:49.896Z,101657.72
2023-05-08T02:16:19.017Z,101663.69
2023-05-08T02:18:51.080Z,101647.06
2023-05-08T02:21:19.763Z,101667.72
2023-05-08T02:23:47.183Z,101665.38
2023-05-08T02:26:17.005Z,101665.78
2023-05-08T02:28:44.316Z,101661.81
2023-05-08T02:31:12.416Z,101659.44
2023-05-08T02:33:42.001Z,101665.84
2023-05-08T02:36:10.879Z,101672.19
2023-05-08T02:38:39.787Z,101672.19
2023-05-08T02:41:07.895Z,101671.81
2023-05-08T02:43:35.172Z,101668.28
2023-05-08T02:46:12.906Z,101683.41
2023-05-08T02:49:02.322Z,101676.63
2023-05-08T02:51:46.600Z,101676.28
2023-05-08T02:54:56.175Z,101681.06
2023-05-08T02:57:50.878Z,101679.06
2023-05-08T03:00:26.980Z,101673.13
2023-05-08T03:02:59.598Z,101665.22
2023-05-08T03:05:31.718Z,101670.41
2023-05-08T03:08:03.817Z,101663.66
2023-05-08T03:10:34.875Z,101674.00
2023-05-08T03:13:05.030Z,101673.59
2023-05-08T03:15:43.292Z,101665.25
2023-05-08T03:18:14.917Z,101660.88
2023-05-08T03:20:46.377Z,101662.09
2023-05-08T03:23:15.570Z,101666.09
2023-05-08T03:25:43.734Z,101668.47
2023-05-08T03:28:11.430Z,101673.25
2023-05-08T03:30:40.239Z,101673.66
2023-05-08T03:33:08.514Z,101668.88
2023-05-08T03:35:39.179Z,101665.72
2023-05-08T03:38:06.847Z,101664.13
2023-05-08T03:40:38.699Z,101663.31
2023-05-08T03:43:08.692Z,101653.78
2023-05-08T03:45:37.327Z,101658.16
2023-05-08T03:48:06.189Z,101657.38
2023-05-08T03:50:35.521Z,101662.56
2023-05-08T03:53:02.267Z,101658.22
2023-05-08T03:55:30.527Z,101656.63
2023-05-08T03:58:03.225Z,101654.63
2023-05-08T04:00:37.805Z,101661.78
2023-05-08T04:03:19.672Z,101662.97
2023-05-08T04:06:10.893Z,101671.34
2023-05-08T04:08:48.266Z,101670.16
2023-05-08T04:11:42.885Z,101665.38
2023-05-08T04:14:16.216Z,101671.75
2023-05-08T04:16:49.894Z,101670.16
2023-05-08T04:19:23.004Z,101672.97
2023-05-08T04:21:50.963Z,101685.28
2023-05-08T04:24:19.578Z,101675.34
2023-05-08T04:26:46.273Z,101679.34
2023-05-08T04:29:13.935Z,101681.34
2023-05-08T04:31:41.381Z,101685.31
2023-05-08T04:34:09.212Z,101692.47
2023-05-08T04:36:35.737Z,101686.09
2023-05-08T04:39:02.186Z,101689.28
2023-05-08T04:41:28.808Z,101693.28
2023-05-08T04:43:55.501Z,101698.03
2023-05-08T04:46:22.017Z,101693.66
2023-05-08T04:48:48.546Z,101691.25
2023-05-08T04:51:14.979Z,101689.25
2023-05-08T04:53:41.403Z,101691.25
2023-05-08T04:56:08.389Z,101693.63
2023-05-08T04:58:34.822Z,101700.75
2023-05-08T05:01:05.332Z,101705.09
2023-05-08T05:03:31.944Z,101705.06
2023-05-08T05:05:59.506Z,101701.88
2023-05-08T05:08:26.907Z,101711.03
2023-05-08T05:10:53.439Z,101705.00
2023-05-08T05:13:20.282Z,101708.16
2023-05-08T05:15:46.922Z,101709.75
2023-05-08T05:18:13.458Z,101704.56
2023-05-08T05:20:40.168Z,101716.09
2023-05-08T05:23:06.608Z,101715.28
2023-05-08T05:25:33.118Z,101712.03
2023-05-08T05:27:59.636Z,101715.19
2023-05-08T05:30:26.141Z,101715.16
2023-05-08T05:32:52.699Z,101720.69
2023-05-08T05:35:20.445Z,101718.25
2023-05-08T05:37:46.895Z,101725.00
2023-05-08T05:40:13.435Z,101729.75
2023-05-08T05:42:39.925Z,101722.94
2023-05-08T05:45:07.095Z,101710.97
2023-05-08T05:47:33.628Z,101717.31
2023-05-08T05:50:00.150Z,101712.50
2023-05-08T05:52:26.768Z,101718.88
2023-05-08T05:54:56.165Z,101720.41
2023-05-08T05:57:22.828Z,101720.00
2023-05-08T05:59:49.562Z,101721.91
2023-05-08T06:02:18.673Z,101724.28
2023-05-08T06:04:45.486Z,101728.59
2023-05-08T06:07:12.051Z,101729.75
2023-05-08T06:09:38.591Z,101730.59
2023-05-08T06:12:05.233Z,101734.13
2023-05-08T06:14:31.785Z,101730.50
2023-05-08T06:16:58.325Z,101724.88
2023-05-08T06:19:24.879Z,101730.44
2023-05-08T06:21:54.609Z,101733.16
2023-05-08T06:24:21.026Z,101722.75
2023-05-08T06:26:47.759Z,101723.06
2023-05-08T06:29:14.945Z,101729.00
2023-05-08T06:31:42.185Z,101730.53
2023-05-08T06:34:09.192Z,101725.69
2023-05-08T06:36:36.359Z,101722.75
2023-05-08T06:39:06.166Z,101726.69
2023-05-08T06:41:32.702Z,101717.00
2023-05-08T06:43:59.388Z,101716.88
2023-05-08T06:46:26.019Z,101713.16
2023-05-08T06:48:52.528Z,101717.00
2023-05-08T06:51:19.895Z,101722.03
2023-05-08T06:53:46.395Z,101714.72
2023-05-08T06:56:12.896Z,101720.50
2023-05-08T06:58:39.344Z,101729.44
2023-05-08T07:01:06.006Z,101720.19
2023-05-08T07:03:32.803Z,101725.75
2023-05-08T07:05:59.226Z,101727.66
2023-05-08T07:08:25.980Z,101729.94
2023-05-08T07:10:53.186Z,101720.13
2023-05-08T07:13:21.941Z,101720.38
2023-05-08T07:15:51.516Z,101730.16
2023-05-08T07:18:18.086Z,101724.63
2023-05-08T07:20:44.579Z,101729.25
2023-05-08T07:23:11.066Z,101730.78
2023-05-08T07:25:37.554Z,101725.66
2023-05-08T07:28:04.230Z,101729.44
2023-05-08T07:30:31.536Z,101736.56
2023-05-08T07:32:58.047Z,101743.31
2023-05-08T07:35:24.915Z,101735.78
2023-05-08T07:37:51.367Z,101737.19
2023-05-08T07:40:17.954Z,101734.56
2023-05-08T07:42:45.522Z,101734.84
2023-05-08T07:45:13.667Z,101741.38
2023-05-08T07:47:49.537Z,101748.78
2023-05-08T07:50:16.112Z,101748.34
2023-05-08T07:52:45.649Z,101751.69
2023-05-08T07:55:39.279Z,101749.75
2023-05-08T07:58:06.668Z,101758.16
2023-05-08T08:00:33.360Z,101754.72
2023-05-08T08:02:59.966Z,101761.91
2023-05-08T08:05:26.532Z,101751.53
2023-05-08T08:07:53.024Z,101759.75
2023-05-08T08:10:19.481Z,101748.72
2023-05-08T08:12:46.072Z,101750.28
2023-05-08T08:15:12.821Z,101750.94
2023-05-08T08:17:39.490Z,101753.91
2023-05-08T08:20:06.872Z,101749.06
2023-05-08T08:22:33.408Z,101750.78
2023-05-08T08:24:59.881Z,101745.41
2023-05-08T08:27:26.321Z,101739.91
2023-05-08T08:30:01.499Z,101745.31
2023-05-08T08:32:39.022Z,101748.28
2023-05-08T08:35:05.909Z,101749.63
2023-05-08T08:37:32.411Z,101748.06
2023-05-08T08:39:59.942Z,101747.78
2023-05-08T08:42:26.400Z,101747.88
2023-05-08T08:44:52.895Z,101746.94
2023-05-08T08:47:22.749Z,101741.63
2023-05-08T08:49:51.009Z,101734.41
2023-05-08T08:52:32.000Z,101742.75
2023-05-08T08:55:02.414Z,101746.28
2023-05-08T08:57:33.882Z,101748.28
2023-05-08T09:00:05.251Z,101750.66
2023-05-08T09:02:31.967Z,101745.22
2023-05-08T09:04:59.384Z,101746.97
2023-05-08T09:07:26.864Z,101737.97
2023-05-08T09:09:54.306Z,101744.72
2023-05-08T09:12:20.984Z,101735.59
2023-05-08T09:14:47.700Z,101748.31
2023-05-08T09:17:14.421Z,101744.88
2023-05-08T09:19:41.214Z,101750.25
2023-05-08T09:22:09.294Z,101748.31
2023-05-08T09:24:59.065Z,101742.63
2023-05-08T09:27:27.634Z,101749.47
2023-05-08T09:30:14.590Z,101746.22
2023-05-08T09:32:43.291Z,101754.28
2023-05-08T09:35:11.158Z,101751.78
2023-05-08T09:37:39.367Z,101751.16
2023-05-08T09:40:17.549Z,101755.47
2023-05-08T09:42:44.578Z,101746.66
2023-05-08T09:45:11.892Z,101756.69
2023-05-08T09:47:39.926Z,101754.59
2023-05-08T09:50:09.160Z,101754.59
2023-05-08T09:52:37.277Z,101757.41
2023-05-08T09:55:03.804Z,101762.84
2023-05-08T09:57:53.788Z,101762.31
2023-05-08T10:00:20.748Z,101758.28
2023-05-08T10:03:06.241Z,101764.78
2023-05-08T10:05:35.850Z,101762.50
2023-05-08T10:08:26.852Z,101747.03
2023-05-08T10:10:53.327Z,101742.59
2023-05-08T10:13:19.849Z,101749.66
2023-05-08T10:15:54.450Z,101759.31
2023-05-08T10:18:24.353Z,101747.34
2023-05-08T10:20:53.603Z,101756.66
2023-05-08T10:23:20.443Z,101747.78
2023-05-08T10:25:48.720Z,101742.34
2023-05-08T10:28:25.809Z,101748.44
2023-05-08T10:30:56.831Z,101745.56
2023-05-08T10:33:31.069Z,101751.88
2023-05-08T10:35:58.870Z,101745.38
2023-05-08T10:38:25.760Z,101749.78
2023-05-08T10:40:58.280Z,101748.31
2023-05-08T10:43:25.700Z,101744.25
2023-05-08T10:45:55.581Z,101740.31
2023-05-08T10:48:47.238Z,101737.59
2023-05-08T10:51:27.564Z,101733.09
2023-05-08T10:53:59.456Z,101728.34
2023-05-08T10:56:29.216Z,101727.66
2023-05-08T10:58:57.519Z,101732.75
2023-05-08T11:01:24.934Z,101731.84
2023-05-08T11:03:52.551Z,101730.59
2023-05-08T11:06:46.541Z,101722.59
2023-05-08T11:09:26.973Z,101726.91
2023-05-08T11:12:24.375Z,101725.44
2023-05-08T11:14:59.972Z,101722.13
2023-05-08T11:17:26.761Z,101718.06
2023-05-08T11:20:01.439Z,101721.09
2023-05-08T11:22:32.730Z,101725.19
2023-05-08T11:25:11.906Z,101721.91
2023-05-08T11:27:44.316Z,101716.38
2023-05-08T11:30:37.197Z,101712.44
2023-05-08T11:33:04.001Z,101721.50
2023-05-08T11:35:56.594Z,101716.19
2023-05-08T11:38:28.935Z,101710.31
2023-05-08T11:41:00.843Z,101717.97
2023-05-08T11:43:33.367Z,101714.34
2023-05-08T11:46:08.343Z,101714.91
2023-05-08T11:48:35.984Z,101712.31
2023-05-08T11:51:03.576Z,101716.59
2023-05-08T11:53:31.350Z,101713.81
2023-05-08T11:55:59.236Z,101710.38
2023-05-08T11:58:26.541Z,101699.44
2023-05-08T12:00:54.714Z,101704.44
2023-05-08T12:03:25.095Z,101704.31
2023-05-08T12:05:55.540Z,101703.97
2023-05-08T12:08:22.144Z,101704.53
2023-05-08T12:10:54.362Z,101700.38
2023-05-08T12:13:30.206Z,101699.56
2023-05-08T12:15:59.752Z,101697.88
2023-05-08T12:18:28.270Z,101701.75
2023-05-08T12:20:58.797Z,101686.84
2023-05-08T12:23:26.486Z,101699.31
2023-05-08T12:25:55.308Z,101699.41
2023-05-08T12:28:22.741Z,101704.75
2023-05-08T12:30:50.121Z,101696.66
2023-05-08T12:33:17.292Z,101700.75
2023-05-08T12:35:44.181Z,101709.00
2023-05-08T12:38:11.958Z,101709.28
2023-05-08T12:40:43.567Z,101705.00
2023-05-08T12:43:11.677Z,101708.84
2023-05-08T12:45:40.372Z,101700.13
2023-05-08T12:48:09.429Z,101707.44
2023-05-08T12:50:44.283Z,101706.41
2023-05-08T12:53:15.580Z,101706.34
2023-05-08T12:55:52.788Z,101708.91
2023-05-08T12:58:20.452Z,101695.72
2023-05-08T13:00:52.510Z,101694.69
2023-05-08T13:03:25.651Z,101699.34
2023-05-08T13:05:53.292Z,101690.78
2023-05-08T13:08:20.123Z,101693.00
2023-05-08T13:10:51.832Z,101696.16
2023-05-08T13:13:31.041Z,101698.53
2023-05-08T13:15:58.337Z,101691.53
2023-05-08T13:18:27.519Z,101686.66
2023-05-08T13:20:56.142Z,101686.91
2023-05-08T13:23:23.464Z,101686.56
2023-05-08T13:25:50.679Z,101677.00
2023-05-08T13:28:17.717Z,101671.34
2023-05-08T13:30:44.184Z,101671.38
2023-05-08T13:33:10.784Z,101668.56
2023-05-08T13:35:37.314Z,101667.44
2023-05-08T13:38:03.793Z,101660.69
2023-05-08T13:40:30.269Z,101659.94
2023-05-08T13:42:56.804Z,101653.47
2023-05-08T13:45:23.376Z,101660.72
2023-05-08T13:47:50.514Z,101650.03
2023-05-08T13:50:19.515Z,101649.25
2023-05-08T13:52:45.957Z,101637.78
2023-05-08T13:55:13.800Z,101636.66
2023-05-08T13:57:41.216Z,101644.69
2023-05-08T14:00:09.032Z,101641.53
2023-05-08T14:02:37.261Z,101634.13
2023-05-08T14:05:04.544Z,101635.88
2023-05-08T14:07:31.071Z,101633.19
2023-05-08T14:09:57.614Z,101634.41
2023-05-08T14:12:24.097Z,101629.22
2023-05-08T14:14:50.598Z,101630.50
2023-05-08T14:17:17.063Z,101626.28
2023-05-08T14:19:43.562Z,101619.97
2023-05-08T14:22:10.089Z,101625.16
2023-05-08T14:24:36.590Z,101623.28
2023-05-08T14:27:05.912Z,101620.69
2023-05-08T14:29:35.883Z,101624.22
2023-05-08T14:32:02.681Z,101621.38
2023-05-08T14:34:29.246Z,101613.88
2023-05-08T14:36:55.765Z,101616.00
2023-05-08T14:39:22.245Z,101619.16
2023-05-08T14:42:10.315Z,101607.97
2023-05-08T14:44:35.259Z,101617.19
2023-05-08T14:47:01.773Z,101622.91
2023-05-08T14:49:37.479Z,101621.22
2023-05-08T14:52:06.379Z,101622.63
2023-05-08T14:54:33.181Z,101608.53
2023-05-08T14:57:00.142Z,101610.81
2023-05-08T14:59:26.680Z,101616.56
2023-05-08T15:01:53.275Z,101608.31
2023-05-08T15:04:19.856Z,101604.94
2023-05-08T15:06:46.702Z,101611.69
2023-05-08T15:09:13.161Z,101611.41
2023-05-08T15:11:39.728Z,101615.84
2023-05-08T15:14:06.302Z,101609.56
2023-05-08T15:16:32.981Z,101614.59
2023-05-08T15:19:00.091Z,101600.75
2023-05-08T15:21:27.407Z,101613.97
2023-05-08T15:23:55.130Z,101616.06
2023-05-08T15:26:22.485Z,101604.78
2023-05-08T15:28:49.117Z,101599.34
2023-05-08T15:31:15.933Z,101605.63
2023-05-08T15:33:44.979Z,101603.13
2023-05-08T15:36:13.400Z,101602.66
2023-05-08T15:38:43.559Z,101600.97
2023-05-08T15:41:14.758Z,101605.19
2023-05-08T15:43:42.272Z,101602.53
2023-05-08T15:46:08.852Z,101599.06
2023-05-08T15:48:35.449Z,101606.91
2023-05-08T15:51:01.905Z,101599.69
2023-05-08T15:53:28.478Z,101601.28
2023-05-08T15:55:56.818Z,101604.56
2023-05-08T15:58:23.345Z,101601.28
2023-05-08T16:00:49.892Z,101598.59
2023-05-08T16:03:16.505Z,101607.22
2023-05-08T16:05:43.497Z,101602.84
2023-05-08T16:08:12.675Z,101599.34
2023-05-08T16:10:40.740Z,101597.03
2023-05-08T16:13:07.631Z,101599.69
2023-05-08T16:15:34.178Z,101595.31
2023-05-08T16:18:00.718Z,101595.63
2023-05-08T16:20:27.190Z,101589.03
2023-05-08T16:23:02.670Z,101593.88
2023-05-08T16:25:29.206Z,101596.09
2023-05-08T16:27:55.760Z,101592.31
2023-05-08T16:30:22.285Z,101583.50
2023-05-08T16:32:48.798Z,101577.38
2023-05-08T16:35:15.811Z,101574.09
2023-05-08T16:37:42.800Z,101562.31
2023-05-08T16:40:10.329Z,101568.75
2023-05-08T16:42:37.576Z,101566.56
2023-05-08T16:45:08.243Z,101562.00
2023-05-08T16:47:35.343Z,101560.88
2023-05-08T16:50:02.109Z,101561.28
2023-05-08T16:52:28.895Z,101559.41
2023-05-08T16:54:55.437Z,101563.44
2023-05-08T16:57:21.919Z,101561.19
2023-05-08T16:59:48.388Z,101557.84
2023-05-08T17:02:18.713Z,101559.94
2023-05-08T17:04:49.284Z,101552.22
2023-05-08T17:07:16.386Z,101556.50
2023-05-08T17:09:43.109Z,101559.94
2023-05-08T17:12:09.928Z,101551.53
2023-05-08T17:14:39.216Z,101550.88
2023-05-08T17:17:06.169Z,101555.06
2023-05-08T17:19:32.709Z,101557.91
2023-05-08T17:21:59.834Z,101562.88
2023-05-08T17:24:26.578Z,101568.91
2023-05-08T17:26:53.082Z,101570.94
2023-05-08T17:29:19.560Z,101571.53
2023-05-08T17:31:46.143Z,101577.91
2023-05-08T17:34:12.764Z,101568.44
2023-05-08T17:36:39.268Z,101575.97
2023-05-08T17:39:05.771Z,101574.69
2023-05-08T17:41:32.264Z,101573.13
2023-05-08T17:43:58.805Z,101572.22
2023-05-08T17:46:25.322Z,101564.31
2023-05-08T17:48:51.779Z,101563.25
2023-05-08T17:51:18.316Z,101570.25
2023-05-08T17:53:44.831Z,101578.81
2023-05-08T17:56:11.725Z,101575.31
2023-05-08T17:58:38.176Z,101573.75
2023-05-08T18:01:06.181Z,101580.75
2023-05-08T18:03:32.718Z,101577.94
2023-05-08T18:05:59.311Z,101566.66
2023-05-08T18:08:25.849Z,101575.47
2023-05-08T18:10:52.344Z,101582.00
2023-05-08T18:13:18.815Z,101577.34
2023-05-08T18:15:45.447Z,101570.50
2023-05-08T18:18:11.943Z,101572.19
2023-05-08T18:20:38.443Z,101571.06
2023-05-08T18:23:04.908Z,101571.28
2023-05-08T18:25:31.403Z,101572.63
2023-05-08T18:27:58.878Z,101573.53
2023-05-08T18:30:25.454Z,101576.34
2023-05-08T18:32:53.219Z,101574.44
2023-05-08T18:35:21.554Z,101578.84
2023-05-08T18:37:48.151Z,101580.41
2023-05-08T18:40:14.869Z,101582.56
2023-05-08T18:42:41.586Z,101589.66
2023-05-08T18:45:08.841Z,101585.59
2023-05-08T18:47:35.304Z,101579.97
2023-05-08T18:50:01.805Z,101587.63
2023-05-08T18:52:28.312Z,101583.00
2023-05-08T18:54:54.780Z,101582.22
2023-05-08T18:57:21.211Z,101576.13
2023-05-08T18:59:47.671Z,101575.81
2023-05-08T19:02:14.524Z,101579.97
2023-05-08T19:04:41.040Z,101576.94
2023-05-08T19:07:07.523Z,101581.09
2023-05-08T19:09:34.138Z,101575.31
2023-05-08T19:12:00.693Z,101574.88
2023-05-08T19:14:27.276Z,101579.38
2023-05-08T19:16:55.615Z,101576.78
2023-05-08T19:19:23.503Z,101574.47
2023-05-08T19:21:49.964Z,101579.78
2023-05-08T19:24:20.364Z,101573.81
2023-05-08T19:26:47.342Z,101572.44
2023-05-08T19:29:13.872Z,101568.25
2023-05-08T19:31:40.465Z,101573.19
2023-05-08T19:34:07.323Z,101576.91
2023-05-08T19:36:36.070Z,101571.69
2023-05-08T19:39:04.109Z,101573.97
2023-05-08T19:41:30.559Z,101581.00
2023-05-08T19:43:57.013Z,101587.06
2023-05-08T19:46:23.616Z,101576.81
2023-05-08T19:48:50.169Z,101577.19
2023-05-08T19:51:16.794Z,101581.75
2023-05-08T19:53:43.378Z,101567.91
2023-05-08T19:56:09.849Z,101559.47
2023-05-08T19:58:36.303Z,101560.34
2023-05-08T20:01:02.844Z,101567.97
2023-05-08T20:03:29.514Z,101560.34
2023-05-08T20:05:56.558Z,101560.00
2023-05-08T20:08:23.064Z,101566.34
2023-05-08T20:10:49.602Z,101570.34
2023-05-08T20:13:17.220Z,101565.53
2023-05-08T20:15:43.934Z,101558.09
2023-05-08T20:18:10.499Z,101564.16
2023-05-08T20:20:37.090Z,101557.03
2023-05-08T20:23:04.384Z,101564.22
2023-05-08T20:25:30.976Z,101563.47
2023-05-08T20:27:57.462Z,101561.88
2023-05-08T20:30:24.150Z,101561.88
2023-05-08T20:32:50.742Z,101555.03
2023-05-08T20:35:17.273Z,101559.50
2023-05-08T20:37:45.217Z,101561.97
2023-05-08T20:40:12.518Z,101561.78
2023-05-08T20:42:41.097Z,101558.28
2023-05-08T20:45:09.159Z,101553.63
2023-05-08T20:47:36.048Z,101552.16
2023-05-08T20:50:03.113Z,101558.13
2023-05-08T20:52:32.106Z,101549.00
2023-05-08T20:54:59.010Z,101551.63
2023-05-08T20:57:25.749Z,101548.13
2023-05-08T20:59:52.220Z,101548.91
2023-05-08T21:02:18.732Z,101535.84
2023-05-08T21:04:45.245Z,101541.00
2023-05-08T21:07:11.838Z,101547.06
2023-05-08T21:09:38.293Z,101536.72
2023-05-08T21:12:04.993Z,101534.25
2023-05-08T21:14:31.505Z,101530.41
2023-05-08T21:16:57.981Z,101532.94
2023-05-08T21:19:24.611Z,101527.44
2023-05-08T21:21:51.198Z,101532.25
2023-05-08T21:24:17.773Z,101536.34
2023-05-08T21:26:44.216Z,101537.19
2023-05-08T21:29:11.275Z,101539.59
2023-05-08T21:31:37.794Z,101541.19
2023-05-08T21:34:04.503Z,101538.81
2023-05-08T21:36:32.184Z,101540.00
2023-05-08T21:38:58.708Z,101537.19
2023-05-08T21:41:25.223Z,101525.97
2023-05-08T21:43:51.779Z,101522.03
2023-05-08T21:46:18.331Z,101516.09
2023-05-08T21:48:44.793Z,101524.56
2023-05-08T21:51:11.504Z,101522.19
2023-05-08T21:53:38.054Z,101522.72
2023-05-08T21:56:04.899Z,101516.94
2023-05-08T21:58:31.366Z,101525.06
2023-05-08T22:00:58.859Z,101513.84
2023-05-08T22:03:25.754Z,101515.59
2023-05-08T22:05:52.358Z,101512.41
2023-05-08T22:08:18.836Z,101514.25
2023-05-08T22:10:46.179Z,101511.09
2023-05-08T22:13:13.142Z,101503.97
2023-05-08T22:15:39.719Z,101502.38
2023-05-08T22:18:06.218Z,101502.75
2023-05-08T22:20:33.220Z,101499.25
2023-05-08T22:22:59.727Z,101504.84
2023-05-08T22:25:26.768Z,101502.47
2023-05-08T22:27:53.393Z,101495.38
2023-05-08T22:30:20.141Z,101492.94
2023-05-08T22:32:53.365Z,101494.94
2023-05-08T22:35:22.388Z,101490.19
2023-05-08T22:37:48.858Z,101493.41
2023-05-08T22:40:15.387Z,101491.47
2023-05-08T22:42:42.452Z,101487.47
2023-05-08T22:45:09.950Z,101489.91
2023-05-08T22:47:36.489Z,101480.44
2023-05-08T22:50:08.261Z,101481.72
2023-05-08T22:52:36.082Z,101477.06
2023-05-08T22:55:03.097Z,101469.91
2023-05-08T22:57:29.606Z,101471.09
2023-05-08T22:59:56.088Z,101474.31
2023-05-08T23:02:22.635Z,101468.78
2023-05-08T23:04:49.316Z,101466.47
2023-05-08T23:07:16.088Z,101466.47
2023-05-08T23:09:42.539Z,101462.97
2023-05-08T23:12:09.085Z,101456.66
2023-05-08T23:14:35.609Z,101463.47
2023-05-08T23:17:02.180Z,101456.38
2023-05-08T23:19:28.689Z,101459.59
2023-05-08T23:21:55.129Z,101456.06
2023-05-08T23:24:21.564Z,101448.53
2023-05-08T23:26:49.678Z,101439.75
2023-05-08T23:29:16.154Z,101446.25
2023-05-08T23:31:42.623Z,101443.06
2023-05-08T23:34:09.193Z,101433.44
2023-05-08T23:36:35.873Z,101423.91
2023-05-08T23:39:02.390Z,101427.22
2023-05-08T23:41:28.906Z,101423.63
2023-05-08T23:43:55.969Z,101419.75
2023-05-08T23:46:22.440Z,101420.25
2023-05-08T23:48:49.009Z,101420.25
2023-05-08T23:51:15.459Z,101419.06
2023-05-08T23:53:42.287Z,101409.97
2023-05-08T23:56:08.948Z,101403.72
2023-05-08T23:58:35.566Z,101405.72
